Time;durP1;ratioP1;P1;durP2;ratioP2;P2;SDS_P1;SDS_P2;PMS_P1;PMS_P2;Temp;Humidity;BMP_temperature;BMP_pressure;BME280_temperature;BME280_humidity;BME280_pressure;Samples;Min_cycle;Max_cycle;Signal;HPM_P1;HPM_P2
2021/03/23 00:01:07;;;;;;;7.97;1.27;;;27.60;14.30;;;;;;5119308;27;20076;-53
2021/03/23 00:03:39;;;;;;;9.00;1.35;;;27.60;14.60;;;;;;5115216;27;20091;-59
2021/03/23 00:06:07;;;;;;;7.55;1.60;;;27.60;14.40;;;;;;5115673;27;20560;-57
2021/03/23 00:08:37;;;;;;;6.18;1.40;;;27.50;14.20;;;;;;5114733;27;20559;-56
2021/03/23 00:11:14;;;;;;;3.92;1.48;;;27.30;14.20;;;;;;5116315;27;20115;-59
2021/03/23 00:13:45;;;;;;;5.43;1.60;;;27.20;14.40;;;;;;5114082;27;20105;-56
2021/03/23 00:16:13;;;;;;;6.65;1.40;;;27.10;14.90;;;;;;5112616;27;20072;-56
2021/03/23 00:18:41;;;;;;;12.23;1.70;;;27.00;14.60;;;;;;5121012;27;20483;-58
2021/03/23 00:21:08;;;;;;;9.65;1.75;;;27.10;14.60;;;;;;5118090;27;20222;-60
2021/03/23 00:23:35;;;;;;;11.82;1.77;;;27.10;14.20;;;;;;5121201;27;20524;-57
2021/03/23 00:26:01;;;;;;;12.20;1.73;;;27.10;14.20;;;;;;5118020;28;20154;-59
2021/03/23 00:28:28;;;;;;;11.15;1.90;;;27.00;13.90;;;;;;5118556;28;20079;-59
2021/03/23 00:30:55;;;;;;;12.52;2.22;;;27.00;14.50;;;;;;5116048;28;20087;-54
2021/03/23 00:33:23;;;;;;;8.15;2.13;;;27.10;13.90;;;;;;5097945;28;20105;-56
2021/03/23 00:35:52;;;;;;;9.30;1.80;;;27.10;14.40;;;;;;5115487;28;20075;-60
2021/03/23 00:38:19;;;;;;;14.30;1.80;;;27.30;14.10;;;;;;5113230;28;20167;-56
2021/03/23 00:40:46;;;;;;;8.27;1.58;;;27.40;14.00;;;;;;5115631;28;20064;-59
2021/03/23 00:43:13;;;;;;;9.93;1.83;;;27.30;14.60;;;;;;5115875;28;20156;-58
2021/03/23 00:45:42;;;;;;;11.95;2.90;;;27.30;14.20;;;;;;5115111;28;20083;-59
2021/03/23 00:48:11;;;;;;;15.95;2.20;;;27.30;14.10;;;;;;5118245;28;20075;-56
2021/03/23 00:50:39;;;;;;;14.82;2.63;;;27.20;14.30;;;;;;5116871;28;20068;-60
2021/03/23 00:53:05;;;;;;;12.77;2.10;;;27.00;14.50;;;;;;5116676;28;20064;-58
2021/03/23 00:55:32;;;;;;;14.48;2.20;;;26.90;14.40;;;;;;5100794;28;20076;-59
2021/03/23 00:57:58;;;;;;;9.52;1.60;;;26.90;14.70;;;;;;5117679;28;20167;-59
2021/03/23 01:00:26;;;;;;;14.32;2.67;;;26.90;14.90;;;;;;5115000;28;20421;-54
2021/03/23 01:02:53;;;;;;;11.50;1.75;;;26.80;14.90;;;;;;5117621;28;20096;-55
2021/03/23 01:05:22;;;;;;;18.52;2.20;;;26.80;14.80;;;;;;5114224;27;20123;-56
2021/03/23 01:07:49;;;;;;;12.65;2.15;;;26.70;15.00;;;;;;5123094;27;20069;-61
2021/03/23 01:10:19;;;;;;;15.20;2.42;;;26.50;14.90;;;;;;5115930;27;20112;-56
2021/03/23 01:12:45;;;;;;;19.48;2.40;;;26.40;15.40;;;;;;5118742;27;20211;-56
2021/03/23 01:15:17;;;;;;;16.40;1.88;;;26.40;15.00;;;;;;5120519;27;20076;-59
2021/03/23 01:17:43;;;;;;;11.98;2.20;;;26.30;15.10;;;;;;5117797;27;20535;-57
2021/03/23 01:20:13;;;;;;;12.48;2.15;;;26.10;16.50;;;;;;5122717;27;20084;-55
2021/03/23 01:22:40;;;;;;;23.73;3.28;;;26.20;16.90;;;;;;5118977;27;20190;-56
2021/03/23 01:25:08;;;;;;;22.35;3.03;;;26.40;16.70;;;;;;5104407;27;20126;-59
2021/03/23 01:27:34;;;;;;;18.02;2.70;;;26.10;16.80;;;;;;5119411;27;20076;-60
2021/03/23 01:30:01;;;;;;;12.40;2.63;;;25.90;17.30;;;;;;5120433;27;20083;-58
2021/03/23 01:32:27;;;;;;;15.95;2.90;;;25.70;17.40;;;;;;5117636;27;20536;-59
2021/03/23 01:34:54;;;;;;;15.60;2.85;;;25.40;17.40;;;;;;5118039;27;20100;-58
2021/03/23 01:37:21;;;;;;;28.65;3.55;;;25.20;17.70;;;;;;5122577;27;21638;-60
2021/03/23 01:39:47;;;;;;;20.80;3.30;;;25.20;17.70;;;;;;5120582;27;20585;-59
2021/03/23 01:42:15;;;;;;;17.58;3.22;;;25.00;17.80;;;;;;5123348;27;20144;-59
2021/03/23 01:44:44;;;;;;;15.20;3.72;;;25.00;17.80;;;;;;5116953;27;20072;-56
2021/03/23 01:47:12;;;;;;;14.23;3.20;;;24.80;17.70;;;;;;5121789;27;20080;-58
2021/03/23 01:49:45;;;;;;;16.73;3.13;;;24.70;17.60;;;;;;5121006;27;20072;-59
2021/03/23 01:52:17;;;;;;;14.07;2.67;;;24.60;17.70;;;;;;5121569;27;20108;-57
2021/03/23 01:54:55;;;;;;;23.92;4.20;;;24.50;17.80;;;;;;5121938;27;20067;-58
2021/03/23 01:57:22;;;;;;;16.50;2.95;;;24.40;18.00;;;;;;5119082;27;20095;-58
2021/03/23 01:59:53;;;;;;;17.67;3.78;;;24.30;18.40;;;;;;5120214;27;20060;-54
2021/03/23 02:02:25;;;;;;;20.65;4.07;;;24.10;18.70;;;;;;5100743;27;20103;-56
2021/03/23 02:04:52;;;;;;;22.52;3.67;;;24.10;19.10;;;;;;5101445;27;20084;-57
2021/03/23 02:07:19;;;;;;;16.98;3.28;;;24.00;19.40;;;;;;5121345;27;20075;-57
2021/03/23 02:09:46;;;;;;;16.85;3.70;;;24.00;19.30;;;;;;5120750;27;20552;-57
2021/03/23 02:12:19;;;;;;;27.15;3.25;;;23.80;19.50;;;;;;5115982;27;20076;-59
2021/03/23 02:14:47;;;;;;;19.75;2.65;;;23.80;19.60;;;;;;5114526;27;20080;-55
2021/03/23 02:17:32;;;;;;;23.05;3.22;;;23.70;19.80;;;;;;5115842;27;20080;-59
2021/03/23 02:20:32;;;;;;;17.30;3.38;;;23.70;19.90;;;;;;5118988;27;20173;-57
2021/03/23 02:23:09;;;;;;;20.67;3.85;;;23.60;20.30;;;;;;5063898;27;20195;-59
2021/03/23 02:25:37;;;;;;;25.88;3.75;;;23.40;20.00;;;;;;5121962;27;20119;-57
2021/03/23 02:28:04;;;;;;;30.70;4.97;;;23.40;19.90;;;;;;5115363;27;20078;-58
2021/03/23 02:30:41;;;;;;;18.20;4.13;;;23.40;20.60;;;;;;5123562;27;20481;-59
2021/03/23 02:33:09;;;;;;;17.25;3.45;;;23.30;19.90;;;;;;5117078;27;20072;-60
2021/03/23 02:35:38;;;;;;;21.17;2.95;;;23.10;19.20;;;;;;5121253;27;20116;-55
2021/03/23 02:38:05;;;;;;;17.92;3.13;;;23.00;19.10;;;;;;5117499;27;20102;-59
2021/03/23 02:40:33;;;;;;;28.25;3.67;;;22.90;19.10;;;;;;5099330;27;20122;-58
2021/03/23 02:42:59;;;;;;;21.45;3.63;;;22.90;19.10;;;;;;5120011;27;20123;-56
2021/03/23 02:45:27;;;;;;;16.45;3.20;;;22.90;19.40;;;;;;5117789;27;20080;-59
2021/03/23 02:47:53;;;;;;;25.38;3.60;;;22.80;19.50;;;;;;5115460;27;20116;-54
2021/03/23 02:50:28;;;;;;;20.85;3.50;;;22.80;19.50;;;;;;5121279;27;20084;-57
2021/03/23 02:52:55;;;;;;;21.02;3.35;;;22.70;19.80;;;;;;5099976;27;20129;-57
2021/03/23 02:55:24;;;;;;;25.33;3.45;;;22.60;20.00;;;;;;5117835;27;20072;-61
2021/03/23 02:57:51;;;;;;;22.85;4.53;;;22.50;20.20;;;;;;5079711;27;20482;-60
2021/03/23 03:00:19;;;;;;;25.00;4.32;;;22.40;19.80;;;;;;5115397;27;20169;-59
2021/03/23 03:02:45;;;;;;;23.65;3.30;;;22.20;20.30;;;;;;5097732;27;20146;-55
2021/03/23 03:05:12;;;;;;;25.73;3.40;;;22.30;20.50;;;;;;5119573;27;20160;-57
2021/03/23 03:07:39;;;;;;;24.30;3.78;;;22.20;20.10;;;;;;5117087;27;20072;-60
2021/03/23 03:10:07;;;;;;;25.13;3.58;;;22.10;19.60;;;;;;5117898;27;20128;-59
2021/03/23 03:12:33;;;;;;;24.85;2.60;;;22.00;19.40;;;;;;5100133;27;20436;-61
2021/03/23 03:15:00;;;;;;;36.33;3.60;;;21.90;19.30;;;;;;5117710;27;20088;-56
2021/03/23 03:17:27;;;;;;;26.48;2.85;;;21.80;19.30;;;;;;5116431;27;20068;-58
2021/03/23 03:19:54;;;;;;;23.60;2.97;;;21.80;19.40;;;;;;5118845;27;20076;-60
2021/03/23 03:22:20;;;;;;;16.02;3.25;;;21.70;19.60;;;;;;5115262;27;20100;-57
2021/03/23 03:24:47;;;;;;;25.63;3.55;;;21.70;19.70;;;;;;5118473;27;20067;-56
2021/03/23 03:27:13;;;;;;;34.88;3.70;;;21.60;19.90;;;;;;5113948;27;20106;-61
2021/03/23 03:29:40;;;;;;;12.95;3.10;;;21.60;20.10;;;;;;5115208;27;20064;-60
2021/03/23 03:32:07;;;;;;;21.40;3.10;;;21.50;20.30;;;;;;5119678;27;20078;-56
2021/03/23 03:34:34;;;;;;;22.27;3.72;;;21.40;20.60;;;;;;5119107;27;20420;-60
2021/03/23 03:37:00;;;;;;;29.98;4.32;;;21.40;20.80;;;;;;5116109;27;20069;-61
2021/03/23 03:39:27;;;;;;;17.92;3.28;;;21.40;21.20;;;;;;5116211;27;20171;-58
2021/03/23 03:41:53;;;;;;;18.58;3.15;;;21.30;21.30;;;;;;5119698;27;20111;-60
2021/03/23 03:44:20;;;;;;;11.38;2.63;;;21.30;21.60;;;;;;5116912;27;20139;-61
2021/03/23 03:46:47;;;;;;;23.10;3.45;;;21.20;21.80;;;;;;5126601;27;20088;-58
2021/03/23 03:49:13;;;;;;;16.75;3.20;;;21.20;22.00;;;;;;5113595;27;20064;-58
2021/03/23 03:51:40;;;;;;;23.63;3.17;;;21.20;22.30;;;;;;5116541;27;20151;-56
2021/03/23 03:54:06;;;;;;;27.52;3.25;;;21.10;22.40;;;;;;5122117;27;20152;-58
2021/03/23 03:56:33;;;;;;;18.33;2.83;;;21.10;22.60;;;;;;5114155;27;20100;-57
2021/03/23 03:58:59;;;;;;;20.73;3.45;;;21.00;22.70;;;;;;5117193;27;20121;-58
2021/03/23 04:01:27;;;;;;;12.15;2.60;;;21.00;22.80;;;;;;5118768;27;20115;-57
2021/03/23 04:03:53;;;;;;;16.08;3.00;;;20.90;22.90;;;;;;5117522;27;20080;-56
2021/03/23 04:06:21;;;;;;;15.88;3.20;;;20.90;23.20;;;;;;5115825;27;20595;-59
2021/03/23 04:08:47;;;;;;;17.52;2.97;;;20.80;23.00;;;;;;5101139;27;20072;-58
2021/03/23 04:11:14;;;;;;;19.42;3.60;;;20.70;22.90;;;;;;5118230;27;20124;-55
2021/03/23 04:13:41;;;;;;;21.08;4.20;;;20.70;23.00;;;;;;5118683;27;20094;-58
2021/03/23 04:16:08;;;;;;;17.05;3.67;;;20.70;23.10;;;;;;5119706;27;20076;-59
2021/03/23 04:18:35;;;;;;;16.15;3.80;;;20.60;23.00;;;;;;5114777;27;20079;-58
2021/03/23 04:21:05;;;;;;;8.82;3.20;;;20.60;22.70;;;;;;5115604;27;20516;-59
2021/03/23 04:23:38;;;;;;;11.88;2.42;;;20.60;22.70;;;;;;5112786;27;20217;-55
2021/03/23 04:26:08;;;;;;;14.05;2.97;;;20.60;22.60;;;;;;5114851;28;20504;-58
2021/03/23 04:28:36;;;;;;;12.20;2.53;;;20.60;22.40;;;;;;5119663;27;20117;-57
2021/03/23 04:31:03;;;;;;;12.10;2.75;;;20.60;22.40;;;;;;5121742;28;20129;-58
2021/03/23 04:33:30;;;;;;;17.90;2.97;;;20.50;22.40;;;;;;5096972;28;20129;-60
2021/03/23 04:35:58;;;;;;;18.75;3.05;;;20.50;22.40;;;;;;5114597;28;20068;-60
2021/03/23 04:38:30;;;;;;;22.45;3.30;;;20.50;22.50;;;;;;5119323;28;20099;-55
2021/03/23 04:40:59;;;;;;;12.98;2.92;;;20.50;22.40;;;;;;5122623;27;20067;-56
2021/03/23 04:43:47;;;;;;;18.52;4.32;;;20.40;22.60;;;;;;5120416;27;20157;-60
2021/03/23 04:46:18;;;;;;;26.92;5.43;;;20.40;22.50;;;;;;5119470;27;20125;-56
2021/03/23 04:48:44;;;;;;;18.27;4.85;;;20.30;22.20;;;;;;5102178;27;20080;-59
2021/03/23 04:51:13;;;;;;;21.10;4.28;;;20.30;22.30;;;;;;5121985;27;20075;-57
2021/03/23 04:53:41;;;;;;;14.55;3.22;;;20.30;22.30;;;;;;5122379;27;20076;-58
2021/03/23 04:56:18;;;;;;;12.98;3.05;;;20.30;22.50;;;;;;5123911;27;20091;-59
2021/03/23 04:58:44;;;;;;;15.10;3.45;;;20.20;22.80;;;;;;5122144;27;20067;-59
2021/03/23 05:01:11;;;;;;;23.42;3.78;;;20.20;22.80;;;;;;5121776;27;20092;-57
2021/03/23 05:03:37;;;;;;;16.60;3.00;;;20.10;22.40;;;;;;5117448;27;20079;-54
2021/03/23 05:06:08;;;;;;;15.35;3.67;;;20.20;21.10;;;;;;5121372;27;20080;-58
2021/03/23 05:08:40;;;;;;;11.52;2.17;;;20.20;20.50;;;;;;5119309;27;20073;-57
2021/03/23 05:11:08;;;;;;;25.25;3.97;;;20.30;20.10;;;;;;5121058;27;20114;-59
2021/03/23 05:13:35;;;;;;;14.15;2.70;;;20.20;20.10;;;;;;5122977;27;20527;-54
2021/03/23 05:16:01;;;;;;;16.80;2.95;;;20.20;20.10;;;;;;5118606;27;20103;-58
2021/03/23 05:18:28;;;;;;;11.32;2.65;;;20.20;19.90;;;;;;5120925;27;20104;-56
2021/03/23 05:20:55;;;;;;;10.95;2.20;;;20.20;20.10;;;;;;5121510;27;20128;-55
2021/03/23 05:23:21;;;;;;;25.67;2.30;;;20.20;20.00;;;;;;5122631;27;20625;-64
2021/03/23 05:25:49;;;;;;;11.55;2.83;;;20.10;20.10;;;;;;5118828;27;20113;-55
2021/03/23 05:28:16;;;;;;;8.45;2.45;;;20.10;20.10;;;;;;5123390;27;20083;-54
2021/03/23 05:30:43;;;;;;;10.48;2.42;;;20.10;20.10;;;;;;5118804;27;20528;-57
2021/03/23 05:33:12;;;;;;;11.52;1.95;;;20.00;20.20;;;;;;5119681;27;20088;-57
2021/03/23 05:35:39;;;;;;;7.45;1.95;;;19.90;20.30;;;;;;5120134;27;20194;-56
2021/03/23 05:38:06;;;;;;;5.97;1.67;;;19.90;20.40;;;;;;5120647;27;20082;-57
2021/03/23 05:40:43;;;;;;;11.93;2.22;;;19.80;20.60;;;;;;5120603;27;20072;-56
2021/03/23 05:43:27;;;;;;;6.18;2.10;;;19.80;20.60;;;;;;5117351;27;20243;-54
2021/03/23 05:46:09;;;;;;;9.98;2.20;;;19.80;20.50;;;;;;5114129;27;20133;-56
2021/03/23 05:48:36;;;;;;;8.40;2.42;;;19.70;24.50;;;;;;5120522;27;20079;-53
2021/03/23 05:51:22;;;;;;;14.27;2.50;;;19.40;26.50;;;;;;5117697;27;20080;-58
2021/03/23 05:53:55;;;;;;;12.02;2.38;;;19.10;27.20;;;;;;5119077;27;20176;-56
2021/03/23 05:56:23;;;;;;;10.00;2.35;;;19.00;26.30;;;;;;5115453;27;20073;-57
2021/03/23 05:58:53;;;;;;;7.50;2.85;;;18.90;25.90;;;;;;5117468;27;20072;-52
2021/03/23 06:01:47;;;;;;;10.25;2.17;;;18.90;25.80;;;;;;5121823;27;20610;-55
2021/03/23 06:04:40;;;;;;;8.65;2.15;;;18.80;25.40;;;;;;5121180;27;20560;-53
2021/03/23 06:07:13;;;;;;;13.40;2.15;;;18.70;25.70;;;;;;5081499;27;20072;-56
2021/03/23 06:09:43;;;;;;;11.98;2.40;;;18.70;26.00;;;;;;5120468;27;20497;-54
2021/03/23 06:12:35;;;;;;;9.30;2.80;;;18.70;26.30;;;;;;5120939;27;20113;-56
2021/03/23 06:15:14;;;;;;;10.13;2.17;;;18.70;26.40;;;;;;5120966;27;20072;-55
2021/03/23 06:18:03;;;;;;;10.60;2.42;;;18.70;26.50;;;;;;5115578;27;20481;-54
2021/03/23 06:20:45;;;;;;;10.88;2.20;;;18.60;26.60;;;;;;5115030;27;20088;-54
2021/03/23 06:23:21;;;;;;;11.55;2.60;;;18.50;26.90;;;;;;5117852;27;20107;-53
2021/03/23 06:25:59;;;;;;;15.50;2.60;;;18.30;26.80;;;;;;5121473;27;20090;-56
2021/03/23 06:28:55;;;;;;;11.50;2.42;;;18.30;28.30;;;;;;5119124;27;20161;-56
2021/03/23 06:31:46;;;;;;;14.23;2.80;;;18.30;28.00;;;;;;5093524;27;20129;-51
2021/03/23 06:34:21;;;;;;;15.63;3.00;;;18.10;28.10;;;;;;5118126;27;20076;-58
2021/03/23 06:36:51;;;;;;;13.93;3.22;;;18.10;28.30;;;;;;5117934;27;20076;-56
2021/03/23 06:39:19;;;;;;;13.57;2.85;;;18.00;28.60;;;;;;5116110;27;20080;-56
2021/03/23 06:42:11;;;;;;;18.70;3.15;;;17.90;28.80;;;;;;5119139;27;20088;-57
2021/03/23 06:44:41;;;;;;;11.65;3.17;;;17.90;29.10;;;;;;5114904;27;20130;-53
2021/03/23 06:47:35;;;;;;;16.70;3.20;;;17.80;29.60;;;;;;5118141;27;20080;-52
2021/03/23 06:50:32;;;;;;;16.23;2.53;;;17.70;29.70;;;;;;5107522;27;20087;-57
2021/03/23 06:53:18;;;;;;;13.43;2.60;;;17.60;30.00;;;;;;5120938;27;20073;-54
2021/03/23 06:55:46;;;;;;;12.70;2.50;;;17.60;30.20;;;;;;5117386;27;20083;-54
2021/03/23 06:58:21;;;;;;;17.23;2.83;;;17.60;30.00;;;;;;5118520;27;20145;-55
2021/03/23 07:01:07;;;;;;;14.68;2.60;;;17.50;30.20;;;;;;5118147;27;20105;-58
2021/03/23 07:03:34;;;;;;;19.23;2.83;;;17.50;30.40;;;;;;5116417;27;20080;-55
2021/03/23 07:06:00;;;;;;;;;;;17.40;30.40;;;;;;5119968;27;20079;-54
2021/03/23 07:08:28;;;;;;;21.13;3.38;;;17.40;30.60;;;;;;5117598;27;20359;-58
2021/03/23 07:10:54;;;;;;;15.43;3.78;;;17.40;30.50;;;;;;5121756;27;20107;-57
2021/03/23 07:13:26;;;;;;;;;;;17.30;30.40;;;;;;5117414;27;20533;-56
2021/03/23 07:16:36;;;;;;;16.88;3.78;;;17.20;30.50;;;;;;5100211;27;20001;-59
2021/03/23 07:19:11;;;;;;;13.55;3.70;;;17.20;30.40;;;;;;5115666;27;20108;-55
2021/03/23 07:21:43;;;;;;;11.02;3.55;;;17.10;30.60;;;;;;5113529;27;20183;-54
2021/03/23 07:24:19;;;;;;;16.05;4.10;;;17.10;30.60;;;;;;5118482;27;20074;-57
2021/03/23 07:27:04;;;;;;;12.98;3.35;;;17.00;30.80;;;;;;5115299;27;20086;-56
2021/03/23 07:29:37;;;;;;;18.30;3.28;;;17.10;30.70;;;;;;5112507;27;20107;-55
2021/03/23 07:32:15;;;;;;;14.27;3.53;;;17.00;30.80;;;;;;5115199;27;20064;-57
2021/03/23 07:35:03;;;;;;;9.25;2.75;;;17.00;30.70;;;;;;5117901;27;20078;-56
2021/03/23 07:37:46;;;;;;;9.32;2.67;;;17.00;30.10;;;;;;5117436;27;20107;-53
2021/03/23 07:40:41;;;;;;;15.23;2.35;;;16.90;30.30;;;;;;5118252;27;20082;-54
2021/03/23 07:43:36;;;;;;;13.60;2.40;;;16.90;29.40;;;;;;5108273;27;20108;-53
2021/03/23 07:46:16;;;;;;;8.75;2.53;;;16.90;29.40;;;;;;5114942;27;20065;-52
2021/03/23 07:49:24;;;;;;;10.27;2.47;;;16.90;29.20;;;;;;5118087;27;20136;-55
2021/03/23 07:52:09;;;;;;;11.75;2.28;;;16.80;29.00;;;;;;5115710;27;20455;-54
2021/03/23 07:54:41;;;;;;;13.63;1.92;;;16.70;28.40;;;;;;5121503;27;20083;-55
2021/03/23 07:57:25;;;;;;;7.13;2.05;;;16.70;26.90;;;;;;5119998;27;20477;-53
2021/03/23 08:00:11;;;;;;;10.02;2.35;;;16.80;26.40;;;;;;5118090;27;20071;-57
2021/03/23 08:02:54;;;;;;;8.85;1.90;;;16.80;26.20;;;;;;5118023;27;20140;-55
2021/03/23 08:05:33;;;;;;;6.68;2.10;;;16.80;25.60;;;;;;5117678;27;20562;-57
2021/03/23 08:08:18;;;;;;;6.10;1.90;;;16.90;25.40;;;;;;5116817;27;20072;-55
2021/03/23 08:10:56;;;;;;;15.60;1.85;;;16.90;25.20;;;;;;5118827;27;20110;-55
2021/03/23 08:13:50;;;;;;;5.90;1.65;;;16.90;24.80;;;;;;5115423;27;20079;-56
2021/03/23 08:16:39;;;;;;;11.25;1.60;;;16.90;25.30;;;;;;5115438;27;20068;-54
2021/03/23 08:19:54;;;;;;;9.70;2.08;;;16.90;25.20;;;;;;5118169;27;20099;-56
2021/03/23 08:22:32;;;;;;;12.27;1.73;;;16.90;25.30;;;;;;5115202;27;20191;-53
2021/03/23 08:25:03;;;;;;;9.43;1.90;;;16.90;25.40;;;;;;5116412;27;20083;-53
2021/03/23 08:27:36;;;;;;;12.15;1.90;;;17.00;25.70;;;;;;5113727;27;20592;-55
2021/03/23 08:30:28;;;;;;;7.85;1.70;;;17.00;25.90;;;;;;5109877;28;20088;-50
2021/03/23 08:33:38;;;;;;;8.13;1.77;;;17.00;26.10;;;;;;5115233;28;20073;-52
2021/03/23 08:36:14;;;;;;;8.18;1.92;;;17.00;26.30;;;;;;5118575;28;20148;-52
2021/03/23 08:39:09;;;;;;;7.22;1.67;;;16.90;26.50;;;;;;5117436;28;20064;-52
2021/03/23 08:42:14;;;;;;;6.38;1.73;;;16.90;27.10;;;;;;5119172;28;20089;-51
2021/03/23 08:44:51;;;;;;;11.27;2.15;;;16.90;27.50;;;;;;5116281;28;20076;-53
2021/03/23 08:47:27;;;;;;;7.15;1.83;;;16.90;27.90;;;;;;5115093;28;20167;-55
2021/03/23 08:49:56;;;;;;;8.25;1.77;;;16.90;28.60;;;;;;5115320;28;20563;-52
2021/03/23 08:52:33;;;;;;;10.80;2.25;;;16.90;28.80;;;;;;5118097;28;20611;-54
2021/03/23 08:54:59;;;;;;;;;;;16.90;29.30;;;;;;5117859;28;20161;-54
2021/03/23 08:57:48;;;;;;;11.48;1.88;;;16.90;29.70;;;;;;5117856;28;19956;-55
2021/03/23 09:00:36;;;;;;;14.27;2.10;;;16.80;30.20;;;;;;5116798;28;21534;-57
2021/03/23 09:03:09;;;;;;;13.00;1.88;;;16.80;30.60;;;;;;5112749;28;20096;-58
2021/03/23 09:05:50;;;;;;;15.02;2.47;;;16.70;31.10;;;;;;5117318;28;20091;-55
2021/03/23 09:08:45;;;;;;;12.65;2.20;;;16.70;31.30;;;;;;5116090;28;20060;-52
2021/03/23 09:11:39;;;;;;;10.73;2.03;;;16.70;31.50;;;;;;5099517;28;20170;-53
2021/03/23 09:14:10;;;;;;;14.52;2.67;;;16.60;31.70;;;;;;5116131;28;20091;-57
2021/03/23 09:16:47;;;;;;;10.38;2.20;;;16.50;32.20;;;;;;5116504;28;20130;-53
2021/03/23 09:19:30;;;;;;;;;;;16.50;32.60;;;;;;5114748;28;20090;-52
2021/03/23 09:21:57;;;;;;;10.18;2.10;;;16.40;32.70;;;;;;5117229;28;19983;-56
2021/03/23 09:24:32;;;;;;;12.95;2.40;;;16.40;32.70;;;;;;5115320;28;20075;-51
2021/03/23 09:27:00;;;;;;;14.10;2.60;;;16.40;32.30;;;;;;5122023;27;20079;-52
2021/03/23 09:29:42;;;;;;;6.00;1.90;;;16.50;31.80;;;;;;5120919;27;20076;-52
2021/03/23 09:32:20;;;;;;;12.10;2.30;;;16.50;31.40;;;;;;5120517;27;20151;-52
2021/03/23 09:35:09;;;;;;;8.85;2.42;;;16.50;31.20;;;;;;5125720;27;20116;-56
2021/03/23 09:37:55;;;;;;;12.70;2.20;;;16.60;31.20;;;;;;5126259;27;20163;-55
2021/03/23 09:40:25;;;;;;;13.65;2.50;;;16.60;31.10;;;;;;5120101;27;20107;-52
2021/03/23 09:42:51;;;;;;;12.07;2.53;;;16.50;31.00;;;;;;5120807;27;20886;-57
2021/03/23 09:45:53;;;;;;;;;;;16.50;30.80;;;;;;5120789;27;20084;-51
2021/03/23 09:48:37;;;;;;;8.95;2.05;;;16.60;31.30;;;;;;5122738;27;19962;-55
2021/03/23 09:51:14;;;;;;;9.82;2.17;;;16.50;30.90;;;;;;5117769;27;20067;-54
2021/03/23 09:53:43;;;;;;;13.82;2.22;;;16.40;31.00;;;;;;5120334;27;20138;-54
2021/03/23 09:56:12;;;;;;;7.72;2.60;;;16.40;31.20;;;;;;5119494;27;20106;-55
2021/03/23 09:58:39;;;;;;;8.07;1.83;;;16.30;32.10;;;;;;5114374;27;20087;-54
2021/03/23 10:01:15;;;;;;;10.45;2.20;;;16.30;30.80;;;;;;5115276;27;20520;-53
2021/03/23 10:03:45;;;;;;;10.33;3.00;;;16.30;30.40;;;;;;5122737;27;20079;-55
2021/03/23 10:06:19;;;;;;;8.48;2.28;;;16.30;30.30;;;;;;5118635;27;20084;-55
2021/03/23 10:09:28;;;;;;;11.27;2.72;;;16.20;30.40;;;;;;5120599;27;20072;-52
2021/03/23 10:11:55;;;;;;;11.88;2.13;;;16.30;30.90;;;;;;5067521;27;20084;-52
2021/03/23 10:14:28;;;;;;;22.08;2.95;;;16.30;32.10;;;;;;5120343;27;20075;-56
2021/03/23 10:17:11;;;;;;;9.35;2.10;;;16.50;32.90;;;;;;5121259;27;20104;-53
2021/03/23 10:20:04;;;;;;;10.65;2.90;;;16.50;33.20;;;;;;5123102;27;20573;-54
2021/03/23 10:22:37;;;;;;;20.67;3.03;;;16.60;33.50;;;;;;5111432;27;20104;-55
2021/03/23 10:25:07;;;;;;;15.48;3.30;;;16.60;33.80;;;;;;5118235;27;20068;-54
2021/03/23 10:27:36;;;;;;;12.13;3.05;;;16.70;34.20;;;;;;5119190;27;20155;-52
2021/03/23 10:30:12;;;;;;;12.63;2.83;;;16.70;34.30;;;;;;5120342;27;20147;-56
2021/03/23 10:32:50;;;;;;;18.75;3.53;;;16.70;34.60;;;;;;5115942;27;20159;-52
2021/03/23 10:35:29;;;;;;;20.42;3.35;;;16.70;34.90;;;;;;5116263;27;20079;-53
2021/03/23 10:38:17;;;;;;;18.55;3.25;;;16.70;35.30;;;;;;5121157;27;20103;-52
2021/03/23 10:40:49;;;;;;;13.00;3.45;;;16.70;35.70;;;;;;5118209;27;20064;-55
2021/03/23 10:43:27;;;;;;;15.73;2.90;;;16.60;35.80;;;;;;5119017;27;20099;-51
2021/03/23 10:45:55;;;;;;;20.90;3.22;;;16.60;36.30;;;;;;5120137;27;20067;-51
2021/03/23 10:48:38;;;;;;;13.15;3.38;;;16.60;36.50;;;;;;5119460;27;20091;-55
2021/03/23 10:51:25;;;;;;;22.48;3.45;;;16.50;36.60;;;;;;5117002;27;20076;-52
2021/03/23 10:54:18;;;;;;;16.15;2.92;;;16.50;37.00;;;;;;5117630;27;20072;-54
2021/03/23 10:56:48;;;;;;;23.58;2.95;;;16.50;37.50;;;;;;5083022;27;20080;-55
2021/03/23 10:59:18;;;;;;;20.90;3.17;;;16.40;37.80;;;;;;5116305;27;20532;-51
2021/03/23 11:02:18;;;;;;;18.67;3.83;;;16.40;38.20;;;;;;5114531;27;20095;-52
2021/03/23 11:05:10;;;;;;;20.45;3.65;;;16.40;38.50;;;;;;5117540;27;20077;-51
2021/03/23 11:07:50;;;;;;;10.73;3.30;;;16.40;38.60;;;;;;5117636;27;20068;-51
2021/03/23 11:10:20;;;;;;;18.23;3.22;;;16.50;38.80;;;;;;5116394;27;20116;-54
2021/03/23 11:12:47;;;;;;;22.00;3.63;;;16.40;39.10;;;;;;5119805;27;20072;-55
2021/03/23 11:15:15;;;;;;;19.38;2.95;;;16.40;39.40;;;;;;5116592;27;20067;-56
2021/03/23 11:17:50;;;;;;;16.75;3.47;;;16.40;40.40;;;;;;5119851;27;20479;-52
2021/03/23 11:20:40;;;;;;;15.18;3.53;;;16.30;40.00;;;;;;5113575;27;20168;-54
2021/03/23 11:23:26;;;;;;;17.50;3.90;;;16.30;40.30;;;;;;5117927;27;20100;-54
2021/03/23 11:25:52;;;;;;;19.73;3.67;;;16.30;40.80;;;;;;5116578;27;20071;-55
2021/03/23 11:28:19;;;;;;;;;;;16.30;41.10;;;;;;5115223;27;20080;-51
2021/03/23 11:30:47;;;;;;;16.38;3.67;;;16.20;41.50;;;;;;5115218;27;19963;-54
2021/03/23 11:33:14;;;;;;;17.83;3.60;;;16.20;41.90;;;;;;5113998;27;20160;-51
2021/03/23 11:35:49;;;;;;;28.55;4.03;;;16.20;42.10;;;;;;5117919;27;20105;-56
2021/03/23 11:38:17;;;;;;;24.13;3.90;;;16.20;42.50;;;;;;5107186;28;20163;-56
2021/03/23 11:40:44;;;;;;;16.42;3.60;;;16.20;42.80;;;;;;5120053;27;20307;-56
2021/03/23 11:43:22;;;;;;;19.58;4.25;;;16.10;42.90;;;;;;5116608;27;20559;-57
2021/03/23 11:45:51;;;;;;;26.20;3.75;;;16.00;43.10;;;;;;5120969;27;20079;-57
2021/03/23 11:48:20;;;;;;;25.27;4.13;;;16.10;43.30;;;;;;5112561;27;20091;-55
2021/03/23 11:50:51;;;;;;;22.58;4.57;;;16.10;43.40;;;;;;5115490;27;20080;-51
2021/03/23 11:53:19;;;;;;;22.33;3.85;;;16.10;43.50;;;;;;5119500;27;20075;-52
2021/03/23 11:55:46;;;;;;;16.38;3.17;;;16.10;43.70;;;;;;5116626;27;20072;-53
2021/03/23 11:58:19;;;;;;;20.08;3.60;;;16.00;43.80;;;;;;5117175;27;20185;-55
2021/03/23 12:00:46;;;;;;;14.20;3.35;;;16.10;43.90;;;;;;5113232;27;20210;-53
2021/03/23 12:03:14;;;;;;;18.92;4.03;;;16.10;43.80;;;;;;5118902;27;20100;-53
2021/03/23 12:05:41;;;;;;;22.77;4.03;;;16.00;43.90;;;;;;5117659;27;20069;-53
2021/03/23 12:08:35;;;;;;;20.15;3.63;;;16.00;44.10;;;;;;5118503;27;20075;-52
2021/03/23 12:11:26;;;;;;;21.77;3.58;;;16.00;44.10;;;;;;5116452;27;20217;-53
2021/03/23 12:14:11;;;;;;;78.63;5.47;;;16.00;44.20;;;;;;5118976;27;20076;-55
2021/03/23 12:17:02;;;;;;;44.08;4.53;;;16.10;44.20;;;;;;5117578;27;20601;-55
2021/03/23 12:20:00;;;;;;;24.85;3.42;;;16.30;44.00;;;;;;5115790;27;20126;-52
2021/03/23 12:22:27;;;;;;;24.77;3.70;;;16.20;44.20;;;;;;5118170;27;20178;-53
2021/03/23 12:24:53;;;;;;;13.43;3.45;;;16.20;44.70;;;;;;5116520;27;20072;-53
2021/03/23 12:27:20;;;;;;;18.80;3.38;;;16.10;45.00;;;;;;5116252;27;20495;-52
2021/03/23 12:29:47;;;;;;;15.32;3.33;;;16.10;45.20;;;;;;5116172;27;20528;-53
2021/03/23 12:32:15;;;;;;;;;;;16.10;45.40;;;;;;5119682;28;20542;-51
2021/03/23 12:34:43;;;;;;;24.58;3.65;;;16.00;45.80;;;;;;5116647;28;19964;-51
2021/03/23 12:37:12;;;;;;;14.30;2.80;;;16.00;46.00;;;;;;5114122;28;20545;-53
2021/03/23 12:39:38;;;;;;;21.63;3.72;;;16.10;45.90;;;;;;5114025;28;20554;-52
2021/03/23 12:42:06;;;;;;;26.38;3.85;;;16.00;45.90;;;;;;5117152;28;20114;-51
2021/03/23 12:44:33;;;;;;;16.25;3.13;;;16.10;46.00;;;;;;5117836;28;20099;-51
2021/03/23 12:46:59;;;;;;;19.40;3.17;;;16.20;46.00;;;;;;5119280;28;20072;-56
2021/03/23 12:49:25;;;;;;;;;;;16.20;46.30;;;;;;5116472;28;20137;-53
2021/03/23 12:51:58;;;;;;;24.73;4.60;;;16.10;46.70;;;;;;5114141;28;19957;-53
2021/03/23 12:54:35;;;;;;;19.75;4.00;;;15.90;47.30;;;;;;5117998;28;20133;-50
2021/03/23 12:57:02;;;;;;;;;;;15.90;47.80;;;;;;5117514;28;20068;-53
2021/03/23 12:59:30;;;;;;;21.77;3.50;;;15.80;48.10;;;;;;5113855;28;20001;-53
2021/03/23 13:01:58;;;;;;;30.92;3.60;;;15.70;48.10;;;;;;5119966;27;20085;-53
2021/03/23 13:04:27;;;;;;;27.08;4.38;;;15.80;48.10;;;;;;5117720;27;20080;-52
2021/03/23 13:06:58;;;;;;;28.92;3.65;;;15.80;48.00;;;;;;5117966;27;20563;-55
2021/03/23 13:09:26;;;;;;;22.35;3.65;;;15.70;48.20;;;;;;5118631;27;20098;-55
2021/03/23 13:11:54;;;;;;;27.85;4.20;;;15.70;48.50;;;;;;5103243;27;20076;-53
2021/03/23 13:14:28;;;;;;;21.27;3.85;;;15.70;48.40;;;;;;5119393;27;20562;-52